sensor_id;sensor_type;location;lat;lon;timestamp;P1;durP1;ratioP1;P2;durP2;ratioP2
62106;SDS011;48087;32.600;-97.100;2022-10-04T00:09:53;9;;;9;;
62106;SDS011;48087;32.600;-97.100;2022-10-04T00:33:33;7;;;7;;
62106;SDS011;48087;32.600;-97.100;2022-10-04T00:55:53;11;;;10;;
62106;SDS011;48087;32.600;-97.100;2022-10-04T01:18:26;12;;;11;;
62106;SDS011;48087;32.600;-97.100;2022-10-04T01:40:49;15;;;14;;
62106;SDS011;48087;32.600;-97.100;2022-10-04T02:03:15;13;;;12;;
62106;SDS011;48087;32.600;-97.100;2022-10-04T02:25:40;14;;;13;;
62106;SDS011;48087;32.600;-97.100;2022-10-04T02:48:11;14;;;13;;
62106;SDS011;48087;32.600;-97.100;2022-10-04T03:10:31;15;;;14;;
62106;SDS011;48087;32.600;-97.100;2022-10-04T03:32:56;14;;;13;;
62106;SDS011;48087;32.600;-97.100;2022-10-04T03:55:21;21;;;16;;
62106;SDS011;48087;32.600;-97.100;2022-10-04T04:17:46;20;;;15;;
62106;SDS011;48087;32.600;-97.100;2022-10-04T04:40:15;20;;;15;;
62106;SDS011;48087;32.600;-97.100;2022-10-04T05:02:36;15;;;14;;
62106;SDS011;48087;32.600;-97.100;2022-10-04T05:24:59;20;;;15;;
62106;SDS011;48087;32.600;-97.100;2022-10-04T05:48:28;14;;;13;;
62106;SDS011;48087;32.600;-97.100;2022-10-04T06:10:55;15;;;14;;
62106;SDS011;48087;32.600;-97.100;2022-10-04T06:33:14;20;;;15;;
62106;SDS011;48087;32.600;-97.100;2022-10-04T06:55:36;15;;;14;;
62106;SDS011;48087;32.600;-97.100;2022-10-04T07:17:54;15;;;14;;
62106;SDS011;48087;32.600;-97.100;2022-10-04T07:40:17;14;;;13;;
62106;SDS011;48087;32.600;-97.100;2022-10-04T07:41:23;14;;;13;;
62106;SDS011;48087;32.600;-97.100;2022-10-04T08:03:47;15;;;14;;
62106;SDS011;48087;32.600;-97.100;2022-10-04T08:26:02;13;;;12;;
62106;SDS011;48087;32.600;-97.100;2022-10-04T08:48:21;13;;;12;;
62106;SDS011;48087;32.600;-97.100;2022-10-04T09:10:36;13;;;12;;
62106;SDS011;48087;32.600;-97.100;2022-10-04T09:32:59;14;;;13;;
62106;SDS011;48087;32.600;-97.100;2022-10-04T09:34:14;13;;;12;;
62106;SDS011;48087;32.600;-97.100;2022-10-04T09:56:26;15;;;14;;
62106;SDS011;48087;32.600;-97.100;2022-10-04T10:18:43;14;;;13;;
62106;SDS011;48087;32.600;-97.100;2022-10-04T10:41:02;15;;;14;;
62106;SDS011;48087;32.600;-97.100;2022-10-04T10:42:10;14;;;13;;
62106;SDS011;48087;32.600;-97.100;2022-10-04T11:04:28;21;;;16;;
62106;SDS011;48087;32.600;-97.100;2022-10-04T11:27:00;20;;;15;;
62106;SDS011;48087;32.600;-97.100;2022-10-04T11:49:02;21;;;16;;
62106;SDS011;48087;32.600;-97.100;2022-10-04T12:11:24;20;;;15;;
62106;SDS011;48087;32.600;-97.100;2022-10-04T12:12:31;20;;;15;;
62106;SDS011;48087;32.600;-97.100;2022-10-04T12:34:46;20;;;15;;
62106;SDS011;48087;32.600;-97.100;2022-10-04T12:57:04;20;;;15;;
62106;SDS011;48087;32.600;-97.100;2022-10-04T13:19:21;15;;;14;;
62106;SDS011;48087;32.600;-97.100;2022-10-04T14:04:05;14;;;13;;
62106;SDS011;48087;32.600;-97.100;2022-10-04T14:50:01;15;;;14;;
62106;SDS011;48087;32.600;-97.100;2022-10-04T15:12:38;11;;;10;;
62106;SDS011;48087;32.600;-97.100;2022-10-04T15:34:59;13;;;12;;
62106;SDS011;48087;32.600;-97.100;2022-10-04T15:57:34;11;;;10;;
62106;SDS011;48087;32.600;-97.100;2022-10-04T16:21:14;11;;;10;;
62106;SDS011;48087;32.600;-97.100;2022-10-04T16:43:47;11;;;10;;
62106;SDS011;48087;32.600;-97.100;2022-10-04T16:44:51;11;;;10;;
62106;SDS011;48087;32.600;-97.100;2022-10-04T17:07:22;11;;;10;;
62106;SDS011;48087;32.600;-97.100;2022-10-04T17:08:39;9;;;8;;
62106;SDS011;48087;32.600;-97.100;2022-10-04T17:31:07;8;;;7;;
62106;SDS011;48087;32.600;-97.100;2022-10-04T17:53:39;8;;;7;;
62106;SDS011;48087;32.600;-97.100;2022-10-04T17:54:48;8;;;7;;
62106;SDS011;48087;32.600;-97.100;2022-10-04T18:17:22;10;;;9;;
62106;SDS011;48087;32.600;-97.100;2022-10-04T18:39:51;8;;;7;;
62106;SDS011;48087;32.600;-97.100;2022-10-04T19:02:27;8;;;7;;
62106;SDS011;48087;32.600;-97.100;2022-10-04T19:25:06;7;;;7;;
62106;SDS011;48087;32.600;-97.100;2022-10-04T19:47:32;7;;;7;;
62106;SDS011;48087;32.600;-97.100;2022-10-04T20:10:05;7;;;7;;
62106;SDS011;48087;32.600;-97.100;2022-10-04T20:32:56;7;;;7;;
62106;SDS011;48087;32.600;-97.100;2022-10-04T20:54:56;7;;;7;;
62106;SDS011;48087;32.600;-97.100;2022-10-04T21:17:32;6;;;6;;
62106;SDS011;48087;32.600;-97.100;2022-10-04T21:39:54;7;;;7;;
62106;SDS011;48087;32.600;-97.100;2022-10-04T21:41:02;7;;;7;;
62106;SDS011;48087;32.600;-97.100;2022-10-04T22:03:31;6;;;6;;
62106;SDS011;48087;32.600;-97.100;2022-10-04T22:25:59;7;;;7;;
62106;SDS011;48087;32.600;-97.100;2022-10-04T22:48:27;7;;;7;;
62106;SDS011;48087;32.600;-97.100;2022-10-04T23:10:53;9;;;9;;
62106;SDS011;48087;32.600;-97.100;2022-10-04T23:33:23;7;;;7;;
62106;SDS011;48087;32.600;-97.100;2022-10-04T23:55:50;7;;;7;;
